• Join FlightAware (Why Join?)
  • Login
  • US Flag 
06:55PM EDT


 

Airport Tracker/Info


-or-


 

Live Flight TrackerFlight Track Log ✈ N678MB ✈ 25-Jun-2013 ✈ KUNV - KOXB

Flight Track Log - Related Links

Times and Time Zones

All times are in EDT time to prevent confusion due to time zone crossing. See the N678MB flight status page for this flight to view local times or setup timezone preferences in your user account.

Time Position Orientation Groundspeed Altitude Reporting Facility
EDT Latitude Longitude Course Direction KTS MPH feet Rate Location/Type
11:50AM 40.7825 -77.8258 132° Southeast 260 299 5,500  Level New York Center
11:51AM 40.7406 -77.7586 129° Southeast 232 267 7,600 2,100 Climbing New York Center
11:52AM 40.7006 -77.6942 129° Southeast 232 267 9,800 2,160 Climbing New York Center
11:53AM 40.5201 -77.4799 133° Southeast  Level Estimated
11:53AM 40.6586 -77.6244 128° Southeast 237 273 12,000  Level New York Center
11:54AM 40.4940 -77.3917 111° Southeast  Level FlightAware Approximate
11:54AM 40.6200 -77.5711 134° Southeast 236 272 14,600  Level New York Center
11:55AM 40.5839 -77.5131 129° Southeast 201 231 16,700 1,800 Climbing New York Center
11:56AM 40.5531 -77.4664 131° Southeast 193 222 18,200 1,500 Climbing New York Center
11:57AM 40.5189 -77.4083 128° Southeast 193 222 19,700 1,140 Climbing New York Center
11:58AM 40.4847 -77.3506 128° Southeast 193 222 20,600 600 Climbing New York Center
11:59AM 40.4400 -77.2889 134° Southeast 229 264 21,000 180 Climbing New York Center
12:00PM 40.3883 -77.2078 130° Southeast 261 300 21,000  Level New York Center
12:01PM 40.3303 -77.1206 131° Southeast 292 336 21,000  Level New York Center
12:02PM 40.2669 -77.0222 130° Southeast 317 365 21,000  Level New York Center
12:03PM 40.1922 -76.9719 153° Southeast 317 365 21,000  Level New York Center
12:04PM 40.0978 -76.9447 168° South 315 362 21,000  Level New York Center
12:05PM 40.0097 -76.9178 167° South 321 369 21,000  Level New York Center
12:06PM 39.9194 -76.8883 166° South 327 376 21,000  Level New York Center
12:07PM 39.8311 -76.8617 167° South 332 382 21,000  Level New York Center
12:08PM 39.7428 -76.8378 168° South 332 382 21,000  Level New York Center
12:09PM 39.6761 -76.8156 166° South 331 381 21,000  Level Washington Center
12:10PM 39.5953 -76.7925 168° South 336 387 21,000  Level Washington Center
12:10PM 39.5058 -76.7642 166° South 336 387 21,000  Level Washington Center
12:11PM 39.4144 -76.7386 168° South 336 387 21,000  Level Washington Center
12:13PM 39.3419 -76.6811 148° Southeast 330 380 21,000  Level Washington Center
12:14PM 39.2908 -76.5758 122° Southeast 311 358 21,000  Level Washington Center
12:14PM 39.2417 -76.4706 121° Southeast 326 375 21,000 -240 Level Washington Center
12:15PM 39.1881 -76.3575 121° Southeast 333 383 20,600 -960 Descending Washington Center
12:17PM 39.1367 -76.2472 121° Southeast 347 399 19,100 -1,320 Descending Washington Center
12:17PM 39.0892 -76.1425 120° Southeast 347 399 18,000 -1,200 Descending Washington Center
12:18PM 39.0397 -76.0406 122° Southeast 342 394 16,800 -4,020 Descending Washington Center
12:19PM 38.9900 -75.9389 122° Southeast 342 394 10,000 -900 Descending Washington Center
12:21PM 38.9422 -75.8397 122° Southeast 337 388 15,000 1,980 Climbing Washington Center
12:21PM 38.8944 -75.7411 122° Southeast 337 388 14,000 -1,320 Descending Washington Center
12:22PM 38.8467 -75.6422 122° Southeast 332 382 12,500 -1,200 Descending Washington Center
12:23PM 38.8028 -75.5597 124° Southeast 326 375 11,600 -900 Descending Washington Center